sensor_id;sensor_type;location;lat;lon;timestamp;noise_LAeq;noise_LA_min;noise_LA_max;noise_LA01;noise_LA95
42701;Laerm;28316;49.504;8.526;2022-08-19T00:01:55;40.98;39.34;42.22;;
42701;Laerm;28316;49.504;8.526;2022-08-19T00:04:26;40.98;39.34;42.53;;
42701;Laerm;28316;49.504;8.526;2022-08-19T00:06:53;40.99;39.34;42.41;;
42701;Laerm;28316;49.504;8.526;2022-08-19T00:09:21;40.98;39.34;42.29;;
42701;Laerm;28316;49.504;8.526;2022-08-19T00:11:47;40.99;39.34;42.41;;
42701;Laerm;28316;49.504;8.526;2022-08-19T00:14:16;40.96;39.34;42.53;;
42701;Laerm;28316;49.504;8.526;2022-08-19T00:16:44;40.96;39.34;42.29;;
42701;Laerm;28316;49.504;8.526;2022-08-19T00:19:11;40.97;39.46;42.24;;
42701;Laerm;28316;49.504;8.526;2022-08-19T00:21:37;40.97;39.21;42.29;;
42701;Laerm;28316;49.504;8.526;2022-08-19T00:24:04;40.98;39.34;42.53;;
42701;Laerm;28316;49.504;8.526;2022-08-19T00:26:30;40.98;39.21;42.29;;
42701;Laerm;28316;49.504;8.526;2022-08-19T00:28:56;40.95;39.08;42.35;;
42701;Laerm;28316;49.504;8.526;2022-08-19T00:31:22;40.96;39.34;42.35;;
42701;Laerm;28316;49.504;8.526;2022-08-19T00:33:48;40.96;39.21;42.29;;
42701;Laerm;28316;49.504;8.526;2022-08-19T00:36:16;40.96;39.46;42.41;;
42701;Laerm;28316;49.504;8.526;2022-08-19T00:38:42;40.96;39.34;42.22;;
42701;Laerm;28316;49.504;8.526;2022-08-19T00:41:12;40.97;39.21;42.22;;
42701;Laerm;28316;49.504;8.526;2022-08-19T00:43:39;40.96;38.95;42.16;;
42701;Laerm;28316;49.504;8.526;2022-08-19T00:46:05;40.96;39.21;42.47;;
42701;Laerm;28316;49.504;8.526;2022-08-19T00:48:32;40.96;39.08;42.35;;
42701;Laerm;28316;49.504;8.526;2022-08-19T00:50:59;40.97;39.08;42.29;;
42701;Laerm;28316;49.504;8.526;2022-08-19T00:53:28;40.98;39.34;42.41;;
42701;Laerm;28316;49.504;8.526;2022-08-19T00:55:58;40.98;39.21;42.53;;
42701;Laerm;28316;49.504;8.526;2022-08-19T00:58:31;40.97;39.34;42.35;;
42701;Laerm;28316;49.504;8.526;2022-08-19T01:00:58;40.97;39.34;42.29;;
42701;Laerm;28316;49.504;8.526;2022-08-19T01:03:24;40.97;39.46;42.22;;
42701;Laerm;28316;49.504;8.526;2022-08-19T01:05:52;40.99;38.99;42.29;;
42701;Laerm;28316;49.504;8.526;2022-08-19T01:08:20;40.97;39.46;42.29;;
42701;Laerm;28316;49.504;8.526;2022-08-19T01:10:54;40.98;39.21;42.29;;
42701;Laerm;28316;49.504;8.526;2022-08-19T01:13:26;40.97;39.34;42.29;;
42701;Laerm;28316;49.504;8.526;2022-08-19T01:16:03;40.98;39.21;42.35;;
42701;Laerm;28316;49.504;8.526;2022-08-19T01:18:32;40.98;39.34;42.47;;
42701;Laerm;28316;49.504;8.526;2022-08-19T01:21:05;40.99;39.21;42.41;;
42701;Laerm;28316;49.504;8.526;2022-08-19T01:23:33;40.99;39.34;42.16;;
42701;Laerm;28316;49.504;8.526;2022-08-19T01:26:23;40.98;39.46;42.47;;
42701;Laerm;28316;49.504;8.526;2022-08-19T01:28:52;40.98;39.34;42.47;;
42701;Laerm;28316;49.504;8.526;2022-08-19T01:31:24;40.97;39.21;42.35;;
42701;Laerm;28316;49.504;8.526;2022-08-19T01:33:51;40.97;39.34;42.29;;
42701;Laerm;28316;49.504;8.526;2022-08-19T01:36:34;40.97;39.46;42.29;;
42701;Laerm;28316;49.504;8.526;2022-08-19T01:39:06;40.97;39.34;42.47;;
42701;Laerm;28316;49.504;8.526;2022-08-19T01:41:33;40.97;39.21;42.29;;
42701;Laerm;28316;49.504;8.526;2022-08-19T01:44:00;40.96;39.21;42.22;;
42701;Laerm;28316;49.504;8.526;2022-08-19T01:46:29;40.94;39.08;42.22;;
42701;Laerm;28316;49.504;8.526;2022-08-19T01:48:55;40.96;39.23;42.16;;
42701;Laerm;28316;49.504;8.526;2022-08-19T01:51:21;40.96;39.46;42.29;;
42701;Laerm;28316;49.504;8.526;2022-08-19T01:53:49;40.95;39.46;42.29;;
42701;Laerm;28316;49.504;8.526;2022-08-19T01:56:16;40.95;39.21;42.16;;
42701;Laerm;28316;49.504;8.526;2022-08-19T01:58:49;40.95;39.34;42.16;;
42701;Laerm;28316;49.504;8.526;2022-08-19T02:01:17;40.94;39.34;42.35;;
42701;Laerm;28316;49.504;8.526;2022-08-19T02:03:43;40.95;39.21;42.29;;
42701;Laerm;28316;49.504;8.526;2022-08-19T02:06:09;40.94;39.34;42.16;;
42701;Laerm;28316;49.504;8.526;2022-08-19T02:08:37;40.91;39.21;42.41;;
42701;Laerm;28316;49.504;8.526;2022-08-19T02:11:04;40.90;39.21;42.35;;
42701;Laerm;28316;49.504;8.526;2022-08-19T02:13:32;40.89;39.46;42.09;;
42701;Laerm;28316;49.504;8.526;2022-08-19T02:15:57;40.88;39.08;42.29;;
42701;Laerm;28316;49.504;8.526;2022-08-19T02:18:23;40.86;39.08;42.71;;
42701;Laerm;28316;49.504;8.526;2022-08-19T02:20:49;40.85;38.81;42.22;;
42701;Laerm;28316;49.504;8.526;2022-08-19T02:23:16;40.85;39.08;42.35;;
42701;Laerm;28316;49.504;8.526;2022-08-19T02:25:46;40.85;39.21;42.22;;
42701;Laerm;28316;49.504;8.526;2022-08-19T02:28:12;40.84;38.81;42.29;;
42701;Laerm;28316;49.504;8.526;2022-08-19T02:30:40;40.83;39.21;42.16;;
42701;Laerm;28316;49.504;8.526;2022-08-19T02:33:06;40.83;39.21;42.29;;
42701;Laerm;28316;49.504;8.526;2022-08-19T02:35:32;40.84;39.34;42.16;;
42701;Laerm;28316;49.504;8.526;2022-08-19T02:37:58;40.85;39.08;42.09;;
42701;Laerm;28316;49.504;8.526;2022-08-19T02:40:49;40.85;39.21;42.22;;
42701;Laerm;28316;49.504;8.526;2022-08-19T02:43:18;40.86;39.34;42.35;;
42701;Laerm;28316;49.504;8.526;2022-08-19T02:45:46;40.86;39.34;42.22;;
42701;Laerm;28316;49.504;8.526;2022-08-19T02:48:16;40.86;39.21;42.16;;
42701;Laerm;28316;49.504;8.526;2022-08-19T02:50:43;40.85;39.34;42.35;;
42701;Laerm;28316;49.504;8.526;2022-08-19T02:53:09;40.84;39.21;42.29;;
42701;Laerm;28316;49.504;8.526;2022-08-19T02:55:35;40.81;38.95;42.09;;
42701;Laerm;28316;49.504;8.526;2022-08-19T02:58:01;40.79;39.34;42.22;;
42701;Laerm;28316;49.504;8.526;2022-08-19T03:00:27;40.75;38.81;42.29;;
42701;Laerm;28316;49.504;8.526;2022-08-19T03:02:53;40.73;38.81;41.96;;
42701;Laerm;28316;49.504;8.526;2022-08-19T03:05:19;40.70;38.95;42.22;;
42701;Laerm;28316;49.504;8.526;2022-08-19T03:07:45;40.70;38.67;42.09;;
42701;Laerm;28316;49.504;8.526;2022-08-19T03:10:12;40.70;38.81;42.16;;
42701;Laerm;28316;49.504;8.526;2022-08-19T03:12:38;40.70;39.08;42.09;;
42701;Laerm;28316;49.504;8.526;2022-08-19T03:15:07;40.71;38.95;42.35;;
42701;Laerm;28316;49.504;8.526;2022-08-19T03:17:34;40.69;38.87;42.16;;
42701;Laerm;28316;49.504;8.526;2022-08-19T03:20:00;40.69;39.21;41.96;;
42701;Laerm;28316;49.504;8.526;2022-08-19T03:22:26;40.68;38.95;42.22;;
42701;Laerm;28316;49.504;8.526;2022-08-19T03:24:52;40.67;39.08;42.06;;
42701;Laerm;28316;49.504;8.526;2022-08-19T03:27:19;40.71;39.08;41.96;;
42701;Laerm;28316;49.504;8.526;2022-08-19T03:29:44;40.69;39.21;41.96;;
42701;Laerm;28316;49.504;8.526;2022-08-19T03:32:11;40.66;38.81;42.09;;
42701;Laerm;28316;49.504;8.526;2022-08-19T03:34:38;40.64;38.95;41.96;;
42701;Laerm;28316;49.504;8.526;2022-08-19T03:37:08;40.61;38.95;41.96;;
42701;Laerm;28316;49.504;8.526;2022-08-19T03:39:37;40.59;38.81;41.82;;
42701;Laerm;28316;49.504;8.526;2022-08-19T03:42:03;40.58;38.81;42.03;;
42701;Laerm;28316;49.504;8.526;2022-08-19T03:44:30;40.57;38.95;42.09;;
42701;Laerm;28316;49.504;8.526;2022-08-19T03:46:58;40.57;38.52;41.96;;
42701;Laerm;28316;49.504;8.526;2022-08-19T03:49:31;40.57;38.99;41.89;;
42701;Laerm;28316;49.504;8.526;2022-08-19T03:51:59;40.56;38.37;41.75;;
42701;Laerm;28316;49.504;8.526;2022-08-19T03:54:27;40.56;38.81;42.09;;
42701;Laerm;28316;49.504;8.526;2022-08-19T03:56:54;40.60;39.08;42.03;;
42701;Laerm;28316;49.504;8.526;2022-08-19T03:59:29;40.60;38.81;41.96;;
42701;Laerm;28316;49.504;8.526;2022-08-19T04:01:59;40.59;38.67;41.89;;
42701;Laerm;28316;49.504;8.526;2022-08-19T04:04:26;40.62;39.08;41.96;;
42701;Laerm;28316;49.504;8.526;2022-08-19T04:06:52;40.66;38.95;42.03;;
42701;Laerm;28316;49.504;8.526;2022-08-19T04:09:19;40.74;38.81;42.16;;
42701;Laerm;28316;49.504;8.526;2022-08-19T04:11:52;40.78;38.95;42.09;;
42701;Laerm;28316;49.504;8.526;2022-08-19T04:14:28;40.80;39.21;42.35;;
42701;Laerm;28316;49.504;8.526;2022-08-19T04:17:02;40.82;39.08;42.16;;
42701;Laerm;28316;49.504;8.526;2022-08-19T04:19:30;40.80;39.21;42.09;;
42701;Laerm;28316;49.504;8.526;2022-08-19T04:21:57;40.78;39.08;42.22;;
42701;Laerm;28316;49.504;8.526;2022-08-19T04:24:24;40.76;39.08;42.29;;
42701;Laerm;28316;49.504;8.526;2022-08-19T04:26:50;40.72;39.08;42.09;;
42701;Laerm;28316;49.504;8.526;2022-08-19T04:29:23;40.69;39.21;42.35;;
42701;Laerm;28316;49.504;8.526;2022-08-19T04:31:53;40.67;39.08;42.16;;
42701;Laerm;28316;49.504;8.526;2022-08-19T04:34:21;40.65;38.81;42.09;;
42701;Laerm;28316;49.504;8.526;2022-08-19T04:36:48;40.62;38.37;41.96;;
42701;Laerm;28316;49.504;8.526;2022-08-19T04:39:21;40.61;38.81;42.09;;
42701;Laerm;28316;49.504;8.526;2022-08-19T04:41:47;40.60;39.08;41.94;;
42701;Laerm;28316;49.504;8.526;2022-08-19T04:44:35;40.60;39.08;42.09;;
42701;Laerm;28316;49.504;8.526;2022-08-19T04:47:02;40.62;38.81;41.96;;
42701;Laerm;28316;49.504;8.526;2022-08-19T04:49:31;40.66;39.21;42.09;;
42701;Laerm;28316;49.504;8.526;2022-08-19T04:51:56;40.66;38.95;42.16;;
42701;Laerm;28316;49.504;8.526;2022-08-19T04:54:24;40.67;39.08;42.29;;
42701;Laerm;28316;49.504;8.526;2022-08-19T04:56:52;40.71;39.21;41.96;;
42701;Laerm;28316;49.504;8.526;2022-08-19T04:59:19;40.71;39.08;41.96;;
42701;Laerm;28316;49.504;8.526;2022-08-19T05:01:46;40.69;39.21;41.89;;
42701;Laerm;28316;49.504;8.526;2022-08-19T05:04:19;40.67;39.21;42.22;;
42701;Laerm;28316;49.504;8.526;2022-08-19T05:06:49;40.68;38.81;42.29;;
42701;Laerm;28316;49.504;8.526;2022-08-19T05:09:17;40.69;38.95;42.16;;
42701;Laerm;28316;49.504;8.526;2022-08-19T05:11:44;40.68;38.81;41.89;;
42701;Laerm;28316;49.504;8.526;2022-08-19T05:14:11;40.69;38.95;42.03;;
42701;Laerm;28316;49.504;8.526;2022-08-19T05:16:39;40.69;39.21;41.89;;
42701;Laerm;28316;49.504;8.526;2022-08-19T05:19:05;40.70;39.08;42.35;;
42701;Laerm;28316;49.504;8.526;2022-08-19T05:21:49;40.71;39.21;42.41;;
42701;Laerm;28316;49.504;8.526;2022-08-19T05:24:33;40.70;38.81;42.03;;
42701;Laerm;28316;49.504;8.526;2022-08-19T05:27:00;40.73;39.21;42.03;;
42701;Laerm;28316;49.504;8.526;2022-08-19T05:29:29;40.72;39.08;41.96;;
42701;Laerm;28316;49.504;8.526;2022-08-19T05:31:57;40.73;38.81;42.35;;
42701;Laerm;28316;49.504;8.526;2022-08-19T05:34:24;40.74;39.08;42.16;;
42701;Laerm;28316;49.504;8.526;2022-08-19T05:36:56;40.75;38.81;42.09;;
42701;Laerm;28316;49.504;8.526;2022-08-19T05:39:28;40.77;39.34;42.35;;
42701;Laerm;28316;49.504;8.526;2022-08-19T05:41:58;40.82;39.08;42.03;;
42701;Laerm;28316;49.504;8.526;2022-08-19T05:44:30;40.83;39.08;42.22;;
42701;Laerm;28316;49.504;8.526;2022-08-19T05:46:58;40.88;39.21;42.35;;
42701;Laerm;28316;49.504;8.526;2022-08-19T05:49:26;40.89;39.34;42.24;;
42701;Laerm;28316;49.504;8.526;2022-08-19T05:51:52;40.89;39.21;42.29;;
42701;Laerm;28316;49.504;8.526;2022-08-19T05:54:19;40.94;39.21;47.83;;
42701;Laerm;28316;49.504;8.526;2022-08-19T05:56:45;40.94;39.34;45.42;;
42701;Laerm;28316;49.504;8.526;2022-08-19T05:59:15;40.94;39.46;42.29;;
42701;Laerm;28316;49.504;8.526;2022-08-19T06:01:45;40.95;39.21;42.16;;
42701;Laerm;28316;49.504;8.526;2022-08-19T06:04:12;40.98;39.21;42.29;;
42701;Laerm;28316;49.504;8.526;2022-08-19T06:06:40;40.99;39.34;42.47;;
42701;Laerm;28316;49.504;8.526;2022-08-19T06:09:07;41.00;39.58;42.16;;
42701;Laerm;28316;49.504;8.526;2022-08-19T06:11:45;41.02;39.34;42.29;;
42701;Laerm;28316;49.504;8.526;2022-08-19T06:14:18;41.04;39.46;42.29;;
42701;Laerm;28316;49.504;8.526;2022-08-19T06:16:45;41.07;39.34;42.69;;
42701;Laerm;28316;49.504;8.526;2022-08-19T06:19:15;41.07;39.58;42.35;;
42701;Laerm;28316;49.504;8.526;2022-08-19T06:21:44;41.10;39.58;42.35;;
42701;Laerm;28316;49.504;8.526;2022-08-19T06:24:13;41.13;39.46;42.71;;
42701;Laerm;28316;49.504;8.526;2022-08-19T06:26:45;41.12;39.58;42.29;;
42701;Laerm;28316;49.504;8.526;2022-08-19T06:29:13;41.15;39.46;42.82;;
42701;Laerm;28316;49.504;8.526;2022-08-19T06:31:45;41.15;39.21;42.47;;
42701;Laerm;28316;49.504;8.526;2022-08-19T06:34:12;41.15;39.92;42.65;;
42701;Laerm;28316;49.504;8.526;2022-08-19T06:36:42;41.14;39.46;42.41;;
42701;Laerm;28316;49.504;8.526;2022-08-19T06:39:16;41.16;39.81;42.47;;
42701;Laerm;28316;49.504;8.526;2022-08-19T06:41:45;41.16;39.57;42.47;;
42701;Laerm;28316;49.504;8.526;2022-08-19T06:44:12;41.15;39.21;42.59;;
42701;Laerm;28316;49.504;8.526;2022-08-19T06:46:39;41.17;39.58;42.53;;
42701;Laerm;28316;49.504;8.526;2022-08-19T06:49:06;41.16;39.46;42.42;;
42701;Laerm;28316;49.504;8.526;2022-08-19T06:51:34;41.15;39.58;42.47;;
42701;Laerm;28316;49.504;8.526;2022-08-19T06:54:00;41.15;39.58;42.65;;
42701;Laerm;28316;49.504;8.526;2022-08-19T06:56:30;41.16;39.58;43.19;;
42701;Laerm;28316;49.504;8.526;2022-08-19T06:59:09;41.17;39.34;42.59;;
42701;Laerm;28316;49.504;8.526;2022-08-19T07:01:43;41.18;39.46;42.65;;
42701;Laerm;28316;49.504;8.526;2022-08-19T07:04:18;41.18;39.70;42.47;;
42701;Laerm;28316;49.504;8.526;2022-08-19T07:06:44;41.18;39.58;42.59;;
42701;Laerm;28316;49.504;8.526;2022-08-19T07:09:15;41.15;39.70;42.41;;
42701;Laerm;28316;49.504;8.526;2022-08-19T07:11:47;41.16;39.70;42.53;;
42701;Laerm;28316;49.504;8.526;2022-08-19T07:14:13;41.19;39.70;42.93;;
42701;Laerm;28316;49.504;8.526;2022-08-19T07:16:41;41.17;38.95;42.47;;
42701;Laerm;28316;49.504;8.526;2022-08-19T07:19:07;41.19;39.46;42.71;;
42701;Laerm;28316;49.504;8.526;2022-08-19T07:21:33;41.19;39.58;42.53;;
42701;Laerm;28316;49.504;8.526;2022-08-19T07:23:59;41.19;39.21;42.47;;
42701;Laerm;28316;49.504;8.526;2022-08-19T07:26:29;41.21;39.70;42.47;;
42701;Laerm;28316;49.504;8.526;2022-08-19T07:28:56;41.23;39.70;42.53;;
42701;Laerm;28316;49.504;8.526;2022-08-19T07:31:26;41.24;39.70;42.53;;
42701;Laerm;28316;49.504;8.526;2022-08-19T07:33:54;41.25;39.92;42.59;;
42701;Laerm;28316;49.504;8.526;2022-08-19T07:36:26;41.24;39.70;42.76;;
42701;Laerm;28316;49.504;8.526;2022-08-19T07:38:57;41.24;39.46;42.59;;
42701;Laerm;28316;49.504;8.526;2022-08-19T07:41:26;41.26;39.89;44.47;;
42701;Laerm;28316;49.504;8.526;2022-08-19T07:43:54;41.26;39.81;43.19;;
42701;Laerm;28316;49.504;8.526;2022-08-19T07:46:20;41.24;39.58;42.47;;
42701;Laerm;28316;49.504;8.526;2022-08-19T07:48:48;41.27;39.70;42.93;;
42701;Laerm;28316;49.504;8.526;2022-08-19T07:51:19;41.28;39.46;42.93;;
42701;Laerm;28316;49.504;8.526;2022-08-19T07:53:47;41.27;39.58;42.41;;
42701;Laerm;28316;49.504;8.526;2022-08-19T07:56:14;41.28;39.92;42.71;;
42701;Laerm;28316;49.504;8.526;2022-08-19T07:58:44;41.28;39.34;42.65;;
42701;Laerm;28316;49.504;8.526;2022-08-19T08:01:15;41.29;39.81;42.71;;
42701;Laerm;28316;49.504;8.526;2022-08-19T08:03:43;41.30;39.70;42.74;;
42701;Laerm;28316;49.504;8.526;2022-08-19T08:06:35;41.34;39.70;42.71;;
42701;Laerm;28316;49.504;8.526;2022-08-19T08:09:26;41.32;39.81;42.88;;
42701;Laerm;28316;49.504;8.526;2022-08-19T08:12:09;41.37;39.34;42.76;;
42701;Laerm;28316;49.504;8.526;2022-08-19T08:14:52;41.37;39.92;43.94;;
42701;Laerm;28316;49.504;8.526;2022-08-19T08:17:21;41.39;39.92;43.14;;
42701;Laerm;28316;49.504;8.526;2022-08-19T08:19:47;41.46;39.92;51.05;;
42701;Laerm;28316;49.504;8.526;2022-08-19T08:22:19;41.42;39.70;43.19;;
42701;Laerm;28316;49.504;8.526;2022-08-19T08:25:06;41.44;39.92;44.11;;
42701;Laerm;28316;49.504;8.526;2022-08-19T08:27:37;41.45;40.03;43.49;;
42701;Laerm;28316;49.504;8.526;2022-08-19T08:30:07;41.46;40.13;42.74;;
42701;Laerm;28316;49.504;8.526;2022-08-19T08:32:37;41.51;40.03;45.14;;
42701;Laerm;28316;49.504;8.526;2022-08-19T08:35:10;41.47;39.92;43.19;;
42701;Laerm;28316;49.504;8.526;2022-08-19T08:37:36;41.54;39.92;45.36;;
42701;Laerm;28316;49.504;8.526;2022-08-19T08:40:26;41.53;39.92;44.35;;
42701;Laerm;28316;49.504;8.526;2022-08-19T08:49:16;41.56;39.92;42.76;;
42701;Laerm;28316;49.504;8.526;2022-08-19T08:52:15;41.66;40.33;46.52;;
42701;Laerm;28316;49.504;8.526;2022-08-19T08:54:45;41.69;40.03;45.72;;
42701;Laerm;28316;49.504;8.526;2022-08-19T08:57:38;41.59;40.03;43.29;;
42701;Laerm;28316;49.504;8.526;2022-08-19T09:00:07;41.56;40.03;43.14;;
42701;Laerm;28316;49.504;8.526;2022-08-19T09:02:33;41.54;39.81;42.98;;
42701;Laerm;28316;49.504;8.526;2022-08-19T09:04:59;41.53;40.03;43.09;;
42701;Laerm;28316;49.504;8.526;2022-08-19T09:10:39;41.83;39.70;49.25;;
42701;Laerm;28316;49.504;8.526;2022-08-19T09:13:28;41.50;39.92;48.69;;
42701;Laerm;28316;49.504;8.526;2022-08-19T09:18:48;41.46;39.58;43.72;;
42701;Laerm;28316;49.504;8.526;2022-08-19T09:21:18;41.39;39.34;43.19;;
42701;Laerm;28316;49.504;8.526;2022-08-19T09:23:44;41.40;39.70;45.04;;
42701;Laerm;28316;49.504;8.526;2022-08-19T09:26:13;41.39;39.58;44.65;;
42701;Laerm;28316;49.504;8.526;2022-08-19T09:28:42;41.37;39.70;44.83;;
42701;Laerm;28316;49.504;8.526;2022-08-19T09:31:20;41.36;39.21;44.51;;
42701;Laerm;28316;49.504;8.526;2022-08-19T09:33:48;41.45;39.34;49.33;;
42701;Laerm;28316;49.504;8.526;2022-08-19T09:36:16;41.90;39.46;56.67;;
42701;Laerm;28316;49.504;8.526;2022-08-19T09:38:44;42.09;39.46;51.59;;
42701;Laerm;28316;49.504;8.526;2022-08-19T09:41:16;41.41;39.70;51.64;;
42701;Laerm;28316;49.504;8.526;2022-08-19T09:43:45;41.42;39.34;52.74;;
42701;Laerm;28316;49.504;8.526;2022-08-19T09:46:12;41.29;39.21;48.45;;
42701;Laerm;28316;49.504;8.526;2022-08-19T09:48:39;41.53;39.34;53.34;;
42701;Laerm;28316;49.504;8.526;2022-08-19T09:51:11;41.15;39.21;44.73;;
42701;Laerm;28316;49.504;8.526;2022-08-19T09:53:40;41.12;39.08;42.93;;
42701;Laerm;28316;49.504;8.526;2022-08-19T09:56:07;41.33;38.81;48.78;;
42701;Laerm;28316;49.504;8.526;2022-08-19T09:58:33;41.23;39.08;48.15;;
42701;Laerm;28316;49.504;8.526;2022-08-19T10:01:01;41.07;39.34;42.76;;
42701;Laerm;28316;49.504;8.526;2022-08-19T10:03:29;41.08;39.21;42.53;;
42701;Laerm;28316;49.504;8.526;2022-08-19T10:05:58;41.05;38.81;43.72;;
42701;Laerm;28316;49.504;8.526;2022-08-19T10:08:34;41.10;39.08;44.76;;
42701;Laerm;28316;49.504;8.526;2022-08-19T10:11:01;41.01;38.95;42.47;;
42701;Laerm;28316;49.504;8.526;2022-08-19T10:13:30;41.06;38.95;44.35;;
42701;Laerm;28316;49.504;8.526;2022-08-19T10:16:06;41.02;39.08;43.09;;
42701;Laerm;28316;49.504;8.526;2022-08-19T10:18:33;41.04;39.21;42.53;;
42701;Laerm;28316;49.504;8.526;2022-08-19T10:21:27;41.05;38.95;44.80;;
42701;Laerm;28316;49.504;8.526;2022-08-19T10:23:58;41.02;38.67;47.20;;
42701;Laerm;28316;49.504;8.526;2022-08-19T10:26:32;40.98;38.81;43.39;;
42701;Laerm;28316;49.504;8.526;2022-08-19T10:28:58;40.97;38.37;44.23;;
42701;Laerm;28316;49.504;8.526;2022-08-19T10:31:29;40.94;38.87;43.39;;
42701;Laerm;28316;49.504;8.526;2022-08-19T10:33:57;40.83;36.91;44.51;;
42701;Laerm;28316;49.504;8.526;2022-08-19T10:36:28;40.93;38.95;44.80;;
42701;Laerm;28316;49.504;8.526;2022-08-19T10:38:57;41.10;38.52;63.78;;
42701;Laerm;28316;49.504;8.526;2022-08-19T10:41:28;40.88;39.08;51.71;;
42701;Laerm;28316;49.504;8.526;2022-08-19T10:43:58;40.83;38.81;43.39;;
42701;Laerm;28316;49.504;8.526;2022-08-19T10:46:26;40.80;38.52;45.83;;
42701;Laerm;28316;49.504;8.526;2022-08-19T10:48:53;41.18;38.67;51.37;;
42701;Laerm;28316;49.504;8.526;2022-08-19T10:51:20;41.09;37.52;47.63;;
42701;Laerm;28316;49.504;8.526;2022-08-19T10:54:05;40.76;36.20;44.31;;
42701;Laerm;28316;49.504;8.526;2022-08-19T10:56:32;40.80;34.31;46.33;;
42701;Laerm;28316;49.504;8.526;2022-08-19T11:01:45;40.82;37.70;48.72;;
42701;Laerm;28316;49.504;8.526;2022-08-19T11:04:11;40.60;37.88;45.86;;
42701;Laerm;28316;49.504;8.526;2022-08-19T11:06:46;40.92;37.32;49.77;;
42701;Laerm;28316;49.504;8.526;2022-08-19T11:09:15;40.99;33.44;53.44;;
42701;Laerm;28316;49.504;8.526;2022-08-19T11:11:42;40.62;38.37;45.14;;
42701;Laerm;28316;49.504;8.526;2022-08-19T11:14:11;42.91;34.69;64.84;;
42701;Laerm;28316;49.504;8.526;2022-08-19T11:16:40;41.62;37.88;60.93;;
42701;Laerm;28316;49.504;8.526;2022-08-19T11:19:08;41.00;33.44;47.02;;
42701;Laerm;28316;49.504;8.526;2022-08-19T11:21:41;40.39;28.67;49.43;;
42701;Laerm;28316;49.504;8.526;2022-08-19T11:24:19;40.26;26.91;48.99;;
42701;Laerm;28316;49.504;8.526;2022-08-19T11:26:48;41.27;38.37;54.80;;
42701;Laerm;28316;49.504;8.526;2022-08-19T11:29:15;40.62;5.00;50.85;;
42701;Laerm;28316;49.504;8.526;2022-08-19T11:31:44;40.12;5.00;48.90;;
42701;Laerm;28316;49.504;8.526;2022-08-19T11:34:17;40.36;30.89;42.53;;
42701;Laerm;28316;49.504;8.526;2022-08-19T11:36:45;41.20;28.67;57.75;;
42701;Laerm;28316;49.504;8.526;2022-08-19T11:39:16;40.56;5.00;45.17;;
42701;Laerm;28316;49.504;8.526;2022-08-19T11:41:42;39.92;5.00;44.80;;
42701;Laerm;28316;49.504;8.526;2022-08-19T11:44:08;39.84;5.00;53.33;;
42701;Laerm;28316;49.504;8.526;2022-08-19T11:46:35;41.54;5.00;57.68;;
42701;Laerm;28316;49.504;8.526;2022-08-19T11:49:03;41.02;5.00;56.75;;
42701;Laerm;28316;49.504;8.526;2022-08-19T11:51:30;40.61;5.00;54.43;;
42701;Laerm;28316;49.504;8.526;2022-08-19T11:53:59;41.54;23.90;57.97;;
42701;Laerm;28316;49.504;8.526;2022-08-19T11:56:27;40.89;37.88;51.02;;
42701;Laerm;28316;49.504;8.526;2022-08-19T11:58:54;40.39;37.52;43.90;;
42701;Laerm;28316;49.504;8.526;2022-08-19T12:01:23;40.85;36.91;52.64;;
42701;Laerm;28316;49.504;8.526;2022-08-19T12:03:52;40.36;37.70;45.54;;
42701;Laerm;28316;49.504;8.526;2022-08-19T12:06:27;40.55;37.52;49.95;;
42701;Laerm;28316;49.504;8.526;2022-08-19T12:08:55;41.24;37.32;52.09;;
42701;Laerm;28316;49.504;8.526;2022-08-19T12:11:22;40.80;38.02;50.97;;
42701;Laerm;28316;49.504;8.526;2022-08-19T12:13:48;40.44;37.70;45.42;;
42701;Laerm;28316;49.504;8.526;2022-08-19T12:16:22;40.61;26.91;53.89;;
42701;Laerm;28316;49.504;8.526;2022-08-19T12:18:50;40.36;37.70;45.33;;
42701;Laerm;28316;49.504;8.526;2022-08-19T12:21:23;40.50;29.92;47.24;;
42701;Laerm;28316;49.504;8.526;2022-08-19T12:23:51;43.59;36.45;60.42;;
42701;Laerm;28316;49.504;8.526;2022-08-19T12:26:18;41.12;35.94;54.81;;
42701;Laerm;28316;49.504;8.526;2022-08-19T12:28:44;40.94;36.69;54.12;;
42701;Laerm;28316;49.504;8.526;2022-08-19T12:31:10;40.23;36.69;45.80;;
42701;Laerm;28316;49.504;8.526;2022-08-19T12:33:40;40.18;37.12;46.23;;
42701;Laerm;28316;49.504;8.526;2022-08-19T12:36:09;40.15;37.32;45.48;;
42701;Laerm;28316;49.504;8.526;2022-08-19T12:38:37;40.60;36.91;47.55;;
42701;Laerm;28316;49.504;8.526;2022-08-19T12:41:05;40.67;37.52;54.42;;
42701;Laerm;28316;49.504;8.526;2022-08-19T12:43:33;41.06;37.12;53.93;;
42701;Laerm;28316;49.504;8.526;2022-08-19T12:46:01;40.41;37.32;48.05;;
42701;Laerm;28316;49.504;8.526;2022-08-19T12:48:27;40.49;36.69;49.32;;
42701;Laerm;28316;49.504;8.526;2022-08-19T12:50:54;40.15;37.12;44.87;;
42701;Laerm;28316;49.504;8.526;2022-08-19T12:53:20;40.12;37.12;46.69;;
42701;Laerm;28316;49.504;8.526;2022-08-19T12:55:46;40.56;37.70;45.57;;
42701;Laerm;28316;49.504;8.526;2022-08-19T12:58:12;40.03;37.32;43.24;;
42701;Laerm;28316;49.504;8.526;2022-08-19T13:00:38;40.19;37.52;43.86;;
42701;Laerm;28316;49.504;8.526;2022-08-19T13:03:04;40.38;37.32;48.67;;
42701;Laerm;28316;49.504;8.526;2022-08-19T13:05:33;40.12;37.12;48.28;;
42701;Laerm;28316;49.504;8.526;2022-08-19T13:08:02;40.08;36.45;48.16;;
42701;Laerm;28316;49.504;8.526;2022-08-19T13:10:33;39.84;36.69;42.71;;
42701;Laerm;28316;49.504;8.526;2022-08-19T13:13:05;40.24;35.94;46.91;;
42701;Laerm;28316;49.504;8.526;2022-08-19T13:15:38;39.89;36.91;42.41;;
42701;Laerm;28316;49.504;8.526;2022-08-19T13:18:09;39.80;36.69;42.35;;
42701;Laerm;28316;49.504;8.526;2022-08-19T13:20:37;41.45;36.91;59.55;;
42701;Laerm;28316;49.504;8.526;2022-08-19T13:23:04;39.83;36.91;44.15;;
42701;Laerm;28316;49.504;8.526;2022-08-19T13:25:30;40.10;36.69;50.27;;
42701;Laerm;28316;49.504;8.526;2022-08-19T13:27:56;41.62;37.12;61.84;;
42701;Laerm;28316;49.504;8.526;2022-08-19T13:30:23;41.15;37.32;57.37;;
42701;Laerm;28316;49.504;8.526;2022-08-19T13:33:08;40.20;36.45;46.64;;
42701;Laerm;28316;49.504;8.526;2022-08-19T13:35:49;40.27;36.69;49.43;;
42701;Laerm;28316;49.504;8.526;2022-08-19T13:38:20;41.45;36.91;56.36;;
42701;Laerm;28316;49.504;8.526;2022-08-19T13:40:49;40.35;36.20;50.53;;
42701;Laerm;28316;49.504;8.526;2022-08-19T13:43:16;41.08;37.12;54.81;;
42701;Laerm;28316;49.504;8.526;2022-08-19T13:45:43;39.88;36.69;45.48;;
42701;Laerm;28316;49.504;8.526;2022-08-19T13:48:08;39.77;37.12;46.69;;
42701;Laerm;28316;49.504;8.526;2022-08-19T13:50:40;39.87;36.20;49.78;;
42701;Laerm;28316;49.504;8.526;2022-08-19T13:53:08;41.52;36.69;55.69;;
42701;Laerm;28316;49.504;8.526;2022-08-19T13:55:37;40.23;36.91;53.77;;
42701;Laerm;28316;49.504;8.526;2022-08-19T13:58:03;39.74;36.45;43.90;;
42701;Laerm;28316;49.504;8.526;2022-08-19T14:00:36;40.55;36.69;52.85;;
42701;Laerm;28316;49.504;8.526;2022-08-19T14:03:03;40.60;36.45;55.55;;
42701;Laerm;28316;49.504;8.526;2022-08-19T14:05:30;40.12;36.91;48.70;;
42701;Laerm;28316;49.504;8.526;2022-08-19T14:07:57;40.81;36.69;57.17;;
42701;Laerm;28316;49.504;8.526;2022-08-19T14:10:23;39.61;36.45;43.58;;
42701;Laerm;28316;49.504;8.526;2022-08-19T14:12:54;39.80;30.89;45.07;;